createdAt,value
2017-07-16T00:00:30.975Z,-4.11
2017-07-16T00:01:18.928Z,-4.11
2017-07-16T00:02:06.969Z,-4.11
2017-07-16T00:02:56.076Z,-4.11
2017-07-16T00:03:44.167Z,-4.11
2017-07-16T00:04:32.202Z,-4.11
2017-07-16T00:05:21.147Z,-4.11
2017-07-16T00:06:09.244Z,-4.11
2017-07-16T00:06:57.263Z,-4.11
2017-07-16T00:07:46.383Z,-4.11
2017-07-16T00:08:34.358Z,-4.11
2017-07-16T00:09:22.452Z,-4.11
2017-07-16T00:10:11.481Z,-4.11
2017-07-16T00:10:59.543Z,-4.11
2017-07-16T00:11:47.505Z,-4.11
2017-07-16T00:12:36.531Z,-4.11
2017-07-16T00:13:24.662Z,-4.11
2017-07-16T00:14:12.704Z,-4.11
2017-07-16T00:15:01.683Z,-4.11
2017-07-16T00:15:49.808Z,-4.11
2017-07-16T00:16:37.737Z,-4.11
2017-07-16T00:17:26.901Z,-4.11
2017-07-16T00:18:14.879Z,-4.11
2017-07-16T00:19:02.970Z,-4.11
2017-07-16T00:19:52.074Z,-4.11
2017-07-16T00:20:40.053Z,-4.11
2017-07-16T00:21:28.147Z,-4.11
2017-07-16T00:22:17.108Z,-4.11
2017-07-16T00:23:05.114Z,-4.11
2017-07-16T00:23:53.287Z,-4.11
2017-07-16T00:24:42.204Z,-4.11
2017-07-16T00:25:30.296Z,-4.11
2017-07-16T00:26:18.504Z,-4.11
2017-07-16T00:27:07.446Z,-4.11
2017-07-16T00:27:55.370Z,-4.11
2017-07-16T00:28:43.446Z,-4.11
2017-07-16T00:29:32.607Z,-4.11
2017-07-16T00:30:20.501Z,-4.11
2017-07-16T00:31:08.919Z,-4.11
2017-07-16T00:31:57.761Z,-4.11
2017-07-16T00:32:45.717Z,-4.11
2017-07-16T00:33:33.690Z,-4.11
2017-07-16T00:34:22.791Z,-4.11
2017-07-16T00:35:11.086Z,-4.11
2017-07-16T00:35:58.802Z,-4.11
2017-07-16T00:36:47.987Z,-4.11
2017-07-16T00:37:36.099Z,-4.11
2017-07-16T00:38:23.955Z,-4.11
2017-07-16T00:39:13.016Z,-4.11
2017-07-16T00:40:01.063Z,-4.11
2017-07-16T00:40:49.210Z,-4.11
2017-07-16T00:41:38.255Z,-4.11
2017-07-16T00:42:26.220Z,-4.11
2017-07-16T00:43:14.292Z,-4.11
2017-07-16T00:44:03.298Z,-4.11
2017-07-16T00:44:51.441Z,-4.11
2017-07-16T00:45:39.476Z,-4.11
2017-07-16T00:46:28.443Z,-4.11
2017-07-16T00:47:16.515Z,-4.11
2017-07-16T00:48:05.054Z,-4.11
2017-07-16T00:48:53.585Z,-4.11
2017-07-16T00:49:41.608Z,-4.11
2017-07-16T00:50:29.724Z,-4.11
2017-07-16T00:51:18.764Z,-4.11
2017-07-16T00:52:06.821Z,-4.11
2017-07-16T00:52:54.875Z,-4.11
2017-07-16T00:53:43.817Z,-4.11
2017-07-16T00:54:31.925Z,-4.11
2017-07-16T00:55:19.955Z,-4.11
2017-07-16T00:56:08.015Z,-4.11
2017-07-16T00:56:56.989Z,-4.11
2017-07-16T00:57:45.093Z,-4.11
2017-07-16T00:58:34.116Z,-4.11
2017-07-16T00:59:22.146Z,-4.11
2017-07-16T01:00:10.252Z,-4.11
2017-07-16T01:00:59.271Z,-4.11
2017-07-16T01:01:47.305Z,-4.11
2017-07-16T01:02:35.335Z,-4.11
2017-07-16T01:03:24.446Z,-4.11
2017-07-16T01:04:12.455Z,-4.11
2017-07-16T01:05:00.500Z,-4.11
2017-07-16T01:05:49.585Z,-4.11
2017-07-16T01:06:37.651Z,-4.11
2017-07-16T01:07:25.680Z,-4.11
2017-07-16T01:08:14.676Z,-4.11
2017-07-16T01:09:02.712Z,-4.11
2017-07-16T01:09:50.713Z,-4.11
2017-07-16T01:10:39.751Z,-4.11
2017-07-16T01:11:27.832Z,-4.11
2017-07-16T01:12:15.838Z,-4.11
2017-07-16T01:13:05.339Z,-4.11
2017-07-16T01:13:52.920Z,-4.11
2017-07-16T01:14:40.983Z,-4.11
2017-07-16T01:15:30.058Z,-4.11
2017-07-16T01:16:18.097Z,-4.11
2017-07-16T01:17:06.293Z,-4.11
2017-07-16T01:17:54.186Z,-4.11
2017-07-16T01:18:43.225Z,-4.11
2017-07-16T01:19:31.419Z,-4.11
2017-07-16T01:20:20.330Z,-4.11
2017-07-16T01:21:08.447Z,-4.11
2017-07-16T01:21:56.510Z,-4.11
2017-07-16T01:22:45.447Z,-4.11
2017-07-16T01:23:33.534Z,-4.11
2017-07-16T01:24:21.652Z,-4.11
2017-07-16T01:25:10.614Z,-4.11
2017-07-16T01:25:58.592Z,-4.11
2017-07-16T01:26:46.715Z,-4.11
2017-07-16T01:27:36.012Z,-4.11
2017-07-16T01:28:23.861Z,-4.11
2017-07-16T01:29:11.765Z,-4.11
2017-07-16T01:30:05.943Z,-4.11
2017-07-16T01:30:53.915Z,-4.11
2017-07-16T01:31:43.025Z,-4.11
2017-07-16T01:32:36.990Z,-4.11
2017-07-16T01:33:25.127Z,-4.11
2017-07-16T01:34:13.033Z,-4.11
2017-07-16T01:35:01.147Z,-4.11
2017-07-16T01:35:50.177Z,-4.11
2017-07-16T01:36:38.255Z,-4.11
2017-07-16T01:37:26.275Z,-4.11
2017-07-16T01:38:15.238Z,-4.11
2017-07-16T01:39:03.445Z,-4.11
2017-07-16T01:39:51.389Z,-4.11
2017-07-16T01:40:39.416Z,-4.11
2017-07-16T01:41:28.533Z,-4.11
2017-07-16T01:42:16.569Z,-4.11
2017-07-16T01:43:10.538Z,-4.11
2017-07-16T01:43:59.631Z,-4.11
2017-07-16T01:44:47.760Z,-4.11
2017-07-16T01:45:35.681Z,-4.11
2017-07-16T01:46:23.739Z,-4.11
2017-07-16T01:47:11.763Z,-4.11
2017-07-16T01:48:01.078Z,-4.11
2017-07-16T01:48:48.936Z,-4.11
2017-07-16T01:49:36.975Z,-4.11
2017-07-16T01:50:31.999Z,-4.11
2017-07-16T01:51:25.942Z,-4.11
2017-07-16T01:52:15.045Z,-4.11
2017-07-16T01:53:03.447Z,-4.11
2017-07-16T01:53:52.198Z,-4.11
2017-07-16T01:54:40.200Z,-4.11
2017-07-16T01:55:28.178Z,-4.11
2017-07-16T01:56:23.365Z,-4.11
2017-07-16T01:57:12.351Z,-4.11
2017-07-16T01:58:01.356Z,-4.11
2017-07-16T01:59:01.701Z,-4.11
2017-07-16T01:59:55.388Z,-4.11
2017-07-16T02:00:55.505Z,-4.11
2017-07-16T02:01:50.665Z,-4.11
2017-07-16T02:02:45.843Z,-4.11
2017-07-16T02:03:45.632Z,-4.11
2017-07-16T02:04:40.615Z,-4.11
2017-07-16T02:05:40.620Z,-4.11
2017-07-16T02:06:40.623Z,-4.11
2017-07-16T02:07:40.695Z,-4.11
2017-07-16T02:08:40.786Z,-4.11
2017-07-16T02:09:46.792Z,-4.11
2017-07-16T02:10:41.880Z,-4.11
2017-07-16T02:11:42.904Z,-4.11
2017-07-16T02:12:43.295Z,-4.11
2017-07-16T02:13:37.903Z,-4.11
2017-07-16T02:14:37.921Z,-4.11
2017-07-16T02:15:31.999Z,-4.11
2017-07-16T02:16:32.064Z,-4.11
2017-07-16T02:17:27.088Z,-4.11
2017-07-16T02:18:27.177Z,-4.11
2017-07-16T02:19:27.185Z,-4.11
2017-07-16T02:20:27.272Z,-4.11
2017-07-16T02:21:21.278Z,-4.11
2017-07-16T02:22:21.307Z,-4.11
2017-07-16T02:23:16.344Z,-4.11
2017-07-16T02:24:11.426Z,-4.11
2017-07-16T02:25:12.373Z,-4.11
2017-07-16T02:26:12.447Z,-4.11
2017-07-16T02:27:07.796Z,-4.11
2017-07-16T02:28:07.893Z,-4.11
2017-07-16T02:29:01.539Z,-4.11
2017-07-16T02:30:01.578Z,-4.11
2017-07-16T02:30:56.575Z,-4.11
2017-07-16T02:31:51.739Z,-4.11
2017-07-16T02:32:51.761Z,-4.11
2017-07-16T02:33:51.726Z,-4.11
2017-07-16T02:34:52.807Z,-4.11
2017-07-16T02:35:53.941Z,-4.11
2017-07-16T02:36:48.780Z,-4.11
2017-07-16T02:37:43.051Z,-4.11
2017-07-16T02:38:42.908Z,-4.11
2017-07-16T02:39:37.931Z,-4.11
2017-07-16T02:40:32.976Z,-4.11
2017-07-16T02:41:28.237Z,-4.11
2017-07-16T02:42:16.038Z,-4.11
2017-07-16T02:43:04.533Z,-4.11
2017-07-16T02:43:58.168Z,-4.11
2017-07-16T02:44:47.213Z,-4.11
2017-07-16T02:45:35.221Z,-4.11
2017-07-16T02:46:24.296Z,-4.11
2017-07-16T02:47:12.401Z,-4.11
2017-07-16T02:48:06.785Z,-4.11
2017-07-16T02:49:06.422Z,-4.11
2017-07-16T02:50:06.500Z,-4.11
2017-07-16T02:51:01.429Z,-4.10
2017-07-16T02:51:50.506Z,-4.10
2017-07-16T02:52:45.995Z,-4.10
2017-07-16T02:53:40.696Z,-4.11
2017-07-16T02:54:34.642Z,-4.11
2017-07-16T02:55:35.659Z,-4.11
2017-07-16T02:56:36.670Z,-4.11
2017-07-16T02:57:31.845Z,-4.11
2017-07-16T02:58:25.718Z,-4.11
2017-07-16T02:59:25.962Z,-4.11
2017-07-16T03:00:20.952Z,-4.11
2017-07-16T03:01:20.897Z,-4.11
2017-07-16T03:02:21.296Z,-4.11
2017-07-16T03:03:20.960Z,-4.11
2017-07-16T03:04:20.971Z,-4.11
2017-07-16T03:05:16.055Z,-4.11
2017-07-16T03:06:11.041Z,-4.11
2017-07-16T03:07:00.111Z,-4.11
2017-07-16T03:07:48.204Z,-4.11
2017-07-16T03:08:36.154Z,-4.11
2017-07-16T03:09:24.236Z,-4.11
2017-07-16T03:10:19.244Z,-4.11
2017-07-16T03:11:14.284Z,-4.11
2017-07-16T03:12:14.469Z,-4.11
2017-07-16T03:13:08.432Z,-4.11
2017-07-16T03:13:57.538Z,-4.11
2017-07-16T03:14:45.675Z,-4.11
2017-07-16T03:15:34.560Z,-4.11
2017-07-16T03:16:29.594Z,-4.11
2017-07-16T03:17:17.734Z,-4.11
2017-07-16T03:18:06.682Z,-4.11
2017-07-16T03:18:55.769Z,-4.11
2017-07-16T03:19:44.804Z,-4.11
2017-07-16T03:20:33.804Z,-4.11
2017-07-16T03:21:21.903Z,-4.11
2017-07-16T03:22:09.952Z,-4.11
2017-07-16T03:22:57.966Z,-4.11
2017-07-16T03:23:47.008Z,-4.11
2017-07-16T03:24:35.188Z,-4.11
2017-07-16T03:25:24.031Z,-4.11
2017-07-16T03:26:12.142Z,-4.11
2017-07-16T03:27:00.179Z,-4.11
2017-07-16T03:27:49.215Z,-4.11
2017-07-16T03:28:37.299Z,-4.11
2017-07-16T03:29:25.277Z,-4.11
2017-07-16T03:30:25.399Z,-4.11
2017-07-16T03:31:13.402Z,-4.11
2017-07-16T03:32:07.592Z,-4.11
2017-07-16T03:33:02.529Z,-4.11
2017-07-16T03:34:02.435Z,-4.11
2017-07-16T03:35:02.603Z,-4.11
2017-07-16T03:36:02.691Z,-4.11
2017-07-16T03:37:02.731Z,-4.11
2017-07-16T03:38:02.745Z,-4.11
2017-07-16T03:39:08.682Z,-4.11
2017-07-16T03:40:08.728Z,-4.11
2017-07-16T03:41:09.787Z,-4.11
2017-07-16T03:42:10.958Z,-4.11
2017-07-16T03:43:10.926Z,-4.11
2017-07-16T03:43:58.923Z,-4.11
2017-07-16T03:44:52.971Z,-4.11
2017-07-16T03:45:41.002Z,-4.11
2017-07-16T03:46:29.041Z,-4.11
2017-07-16T03:47:17.074Z,-4.11
2017-07-16T03:48:17.222Z,-4.11
2017-07-16T03:49:12.208Z,-4.11
2017-07-16T03:50:12.195Z,-4.11
2017-07-16T03:51:12.188Z,-4.11
2017-07-16T03:52:12.342Z,-4.11
2017-07-16T03:53:12.261Z,-4.11
2017-07-16T03:54:12.376Z,-4.11
2017-07-16T03:55:12.373Z,-4.11
2017-07-16T03:56:12.473Z,-4.11
2017-07-16T03:57:18.448Z,-4.11
2017-07-16T03:58:13.451Z,-4.11
2017-07-16T03:59:13.582Z,-4.11
2017-07-16T04:00:13.547Z,-4.11
2017-07-16T04:01:07.655Z,-4.11
2017-07-16T04:02:07.672Z,-4.11
2017-07-16T04:03:02.842Z,-4.11
2017-07-16T04:03:57.761Z,-4.11
2017-07-16T04:04:51.816Z,-4.11
2017-07-16T04:05:52.760Z,-4.11
2017-07-16T04:06:52.881Z,-4.11
2017-07-16T04:07:46.897Z,-4.10
2017-07-16T04:08:35.921Z,-4.10
2017-07-16T04:09:24.267Z,-4.11
2017-07-16T04:10:12.039Z,-4.11
2017-07-16T04:11:01.117Z,-4.11
2017-07-16T04:11:49.041Z,-4.11
2017-07-16T04:12:38.233Z,-4.11
2017-07-16T04:13:26.276Z,-4.11
2017-07-16T04:14:20.325Z,-4.11
2017-07-16T04:15:15.325Z,-4.11
2017-07-16T04:16:15.339Z,-4.11
2017-07-16T04:17:15.384Z,-4.11
2017-07-16T04:18:15.437Z,-4.11
2017-07-16T04:19:15.405Z,-4.11
2017-07-16T04:20:09.510Z,-4.11
2017-07-16T04:21:03.480Z,-4.11
2017-07-16T04:22:03.580Z,-4.11
2017-07-16T04:23:03.930Z,-4.11
2017-07-16T04:24:04.641Z,-4.11
2017-07-16T04:24:58.706Z,-4.11
2017-07-16T04:25:53.746Z,-4.11
2017-07-16T04:26:53.871Z,-4.10
2017-07-16T04:27:47.861Z,-4.11
2017-07-16T04:28:48.790Z,-4.11
2017-07-16T04:29:49.786Z,-4.11
2017-07-16T04:30:49.865Z,-4.11
2017-07-16T04:31:49.908Z,-4.11
2017-07-16T04:32:43.968Z,-4.10
2017-07-16T04:33:37.959Z,-4.11
2017-07-16T04:34:38.120Z,-4.10
2017-07-16T04:35:38.052Z,-4.10
2017-07-16T04:36:33.096Z,-4.10
2017-07-16T04:37:33.201Z,-4.10
2017-07-16T04:38:28.246Z,-4.10
2017-07-16T04:39:28.305Z,-4.10
2017-07-16T04:40:23.376Z,-4.10
2017-07-16T04:41:17.382Z,-4.10
2017-07-16T04:42:12.288Z,-4.10
2017-07-16T04:43:00.385Z,-4.10
2017-07-16T04:43:54.521Z,-4.10
2017-07-16T04:44:55.520Z,-4.10
2017-07-16T04:45:50.512Z,-4.10
2017-07-16T04:46:50.544Z,-4.10
2017-07-16T04:47:50.663Z,-4.10
2017-07-16T04:48:50.641Z,-4.10
2017-07-16T04:49:56.696Z,-4.10
2017-07-16T04:50:51.726Z,-4.10
2017-07-16T04:51:45.907Z,-4.10
2017-07-16T04:52:40.956Z,-4.10
2017-07-16T04:53:40.801Z,-4.10
2017-07-16T04:54:40.962Z,-4.10
2017-07-16T04:55:34.934Z,-4.10
2017-07-16T04:56:28.950Z,-4.10
2017-07-16T04:57:30.593Z,-4.10
2017-07-16T04:58:19.062Z,-4.10
2017-07-16T04:59:13.092Z,-4.10
2017-07-16T05:00:02.177Z,-4.10
2017-07-16T05:00:56.266Z,-4.10
2017-07-16T05:01:56.162Z,-4.10
2017-07-16T05:02:51.320Z,-4.10
2017-07-16T05:03:46.480Z,-4.10
2017-07-16T05:04:46.536Z,-4.10
2017-07-16T05:05:41.455Z,-4.10
2017-07-16T05:06:36.392Z,-4.10
2017-07-16T05:07:30.384Z,-4.10
2017-07-16T05:08:18.512Z,-4.10
2017-07-16T05:09:06.570Z,-4.10
2017-07-16T05:09:55.575Z,-4.10
2017-07-16T05:10:44.547Z,-4.10
2017-07-16T05:11:38.702Z,-4.10
2017-07-16T05:12:33.757Z,-4.10
2017-07-16T05:13:21.784Z,-4.10
2017-07-16T05:14:09.851Z,-4.10
2017-07-16T05:15:04.111Z,-4.10
2017-07-16T05:15:52.919Z,-4.10
2017-07-16T05:16:47.050Z,-4.10
2017-07-16T05:17:47.005Z,-4.10
2017-07-16T05:18:36.034Z,-4.10
2017-07-16T05:19:30.074Z,-4.10
2017-07-16T05:20:30.158Z,-4.10
2017-07-16T05:21:19.313Z,-4.10
2017-07-16T05:22:14.291Z,-4.10
2017-07-16T05:23:14.254Z,-4.10
2017-07-16T05:24:03.307Z,-4.10
2017-07-16T05:24:57.330Z,-4.10
2017-07-16T05:25:52.447Z,-4.10
2017-07-16T05:26:46.548Z,-4.10
2017-07-16T05:27:40.563Z,-4.10
2017-07-16T05:28:40.528Z,-4.10
2017-07-16T05:29:35.809Z,-4.10
2017-07-16T05:30:30.559Z,-4.10
2017-07-16T05:31:24.666Z,-4.10
2017-07-16T05:32:25.077Z,-4.10
2017-07-16T05:33:19.737Z,-4.10
2017-07-16T05:34:14.755Z,-4.10
2017-07-16T05:35:08.754Z,-4.10
2017-07-16T05:36:08.817Z,-4.10
2017-07-16T05:37:03.966Z,-4.10
2017-07-16T05:37:51.967Z,-4.10
2017-07-16T05:38:45.981Z,-4.10
2017-07-16T05:39:40.291Z,-4.10
2017-07-16T05:40:34.116Z,-4.10
2017-07-16T05:41:28.073Z,-4.10
2017-07-16T05:42:29.424Z,-4.10
2017-07-16T05:43:17.246Z,-4.10
2017-07-16T05:44:06.295Z,-4.10
2017-07-16T05:45:00.268Z,-4.10
2017-07-16T05:46:00.406Z,-4.10
2017-07-16T05:47:00.577Z,-4.10
2017-07-16T05:48:00.398Z,-4.10
2017-07-16T05:48:54.462Z,-4.10
2017-07-16T05:49:54.517Z,-4.10
2017-07-16T05:50:49.417Z,-4.10
2017-07-16T05:51:43.542Z,-4.10
2017-07-16T05:52:43.610Z,-4.10
2017-07-16T05:53:43.575Z,-4.10
2017-07-16T05:54:43.738Z,-4.10
2017-07-16T05:55:37.711Z,-4.10
2017-07-16T05:56:31.815Z,-4.10
2017-07-16T05:57:19.766Z,-4.10
2017-07-16T05:58:20.851Z,-4.10
2017-07-16T05:59:20.976Z,-4.09
2017-07-16T06:00:15.917Z,-4.09
2017-07-16T06:01:05.040Z,-4.09
2017-07-16T06:01:59.145Z,-4.09
2017-07-16T06:02:53.086Z,-4.09
2017-07-16T06:03:42.133Z,-4.09
2017-07-16T06:04:30.093Z,-4.09
2017-07-16T06:05:19.239Z,-4.09
2017-07-16T06:06:07.399Z,-4.09
2017-07-16T06:06:56.322Z,-4.09
2017-07-16T06:07:51.296Z,-4.09
2017-07-16T06:08:45.367Z,-4.09
2017-07-16T06:09:40.462Z,-4.09
2017-07-16T06:10:40.561Z,-4.09
2017-07-16T06:11:34.796Z,-4.09
2017-07-16T06:12:29.934Z,-4.09
2017-07-16T06:13:18.612Z,-4.09
2017-07-16T06:14:12.674Z,-4.09
2017-07-16T06:15:12.707Z,-4.09
2017-07-16T06:16:00.742Z,-4.09
2017-07-16T06:16:55.918Z,-4.09
2017-07-16T06:17:56.819Z,-4.09
2017-07-16T06:18:51.858Z,-4.09
2017-07-16T06:19:41.039Z,-4.09
2017-07-16T06:20:29.917Z,-4.09
2017-07-16T06:21:24.958Z,-4.09
2017-07-16T06:22:19.108Z,-4.09
2017-07-16T06:23:13.130Z,-4.09
2017-07-16T06:24:02.079Z,-4.09
2017-07-16T06:25:02.221Z,-4.09
2017-07-16T06:25:56.297Z,-4.09
2017-07-16T06:26:51.177Z,-4.09
2017-07-16T06:27:51.243Z,-4.09
2017-07-16T06:28:45.289Z,-4.09
2017-07-16T06:29:45.402Z,-4.09
2017-07-16T06:30:39.406Z,-4.09
2017-07-16T06:31:27.438Z,-4.09
2017-07-16T06:32:15.535Z,-4.09
2017-07-16T06:33:04.621Z,-4.09
2017-07-16T06:33:53.581Z,-4.09
2017-07-16T06:34:42.718Z,-4.09
2017-07-16T06:35:30.719Z,-4.09
2017-07-16T06:36:19.710Z,-4.09
2017-07-16T06:37:08.796Z,-4.09
2017-07-16T06:37:57.829Z,-4.09
2017-07-16T06:38:45.943Z,-4.09
2017-07-16T06:39:39.972Z,-4.09
2017-07-16T06:40:34.025Z,-4.08
2017-07-16T06:41:34.009Z,-4.09
2017-07-16T06:42:23.076Z,-4.08
2017-07-16T06:43:12.114Z,-4.08
2017-07-16T06:44:06.189Z,-4.09
2017-07-16T06:45:01.300Z,-4.09
2017-07-16T06:45:55.229Z,-4.09
2017-07-16T06:46:49.320Z,-4.09
2017-07-16T06:47:43.370Z,-4.09
2017-07-16T06:48:43.312Z,-4.09
2017-07-16T06:49:37.439Z,-4.09
2017-07-16T06:50:37.605Z,-4.09
2017-07-16T06:51:31.621Z,-4.09
2017-07-16T06:52:25.847Z,-4.09
2017-07-16T06:53:13.755Z,-4.09
2017-07-16T06:54:02.696Z,-4.09
2017-07-16T06:54:50.902Z,-4.09
2017-07-16T06:55:45.806Z,-4.09
2017-07-16T06:56:45.745Z,-4.09
2017-07-16T06:57:40.806Z,-4.09
2017-07-16T06:58:40.985Z,-4.09
2017-07-16T06:59:35.963Z,-4.09
2017-07-16T07:00:31.071Z,-4.09
2017-07-16T07:01:30.948Z,-4.09
2017-07-16T07:02:26.323Z,-4.09
2017-07-16T07:03:20.079Z,-4.09
2017-07-16T07:04:08.083Z,-4.09
2017-07-16T07:04:56.444Z,-4.09
2017-07-16T07:05:45.202Z,-4.09
2017-07-16T07:06:39.206Z,-4.09
2017-07-16T07:07:33.628Z,-4.09
2017-07-16T07:08:28.636Z,-4.09
2017-07-16T07:09:22.380Z,-4.09
2017-07-16T07:10:22.457Z,-4.09
2017-07-16T07:11:11.929Z,-4.09
2017-07-16T07:12:06.514Z,-4.09
2017-07-16T07:13:00.606Z,-4.09
2017-07-16T07:13:55.583Z,-4.08
2017-07-16T07:14:55.671Z,-4.08
2017-07-16T07:15:50.731Z,-4.08
2017-07-16T07:16:44.914Z,-4.08
2017-07-16T07:17:38.749Z,-4.08
2017-07-16T07:18:33.148Z,-4.08
2017-07-16T07:19:27.854Z,-4.08
2017-07-16T07:20:23.002Z,-4.08
2017-07-16T07:21:16.971Z,-4.08
2017-07-16T07:22:18.037Z,-4.07
2017-07-16T07:23:13.103Z,-4.07
2017-07-16T07:24:08.135Z,-4.08
2017-07-16T07:25:02.186Z,-4.08
2017-07-16T07:26:03.150Z,-4.08
2017-07-16T07:27:04.283Z,-4.08
2017-07-16T07:27:58.321Z,-4.08
2017-07-16T07:28:52.385Z,-4.08
2017-07-16T07:29:47.358Z,-4.08
2017-07-16T07:30:41.703Z,-4.08
2017-07-16T07:31:30.645Z,-4.08
2017-07-16T07:32:18.447Z,-4.08
2017-07-16T07:33:12.712Z,-4.08
2017-07-16T07:34:06.565Z,-4.08
2017-07-16T07:35:01.668Z,-4.09
2017-07-16T07:35:56.619Z,-4.09
2017-07-16T07:36:45.815Z,-4.09
2017-07-16T07:37:39.721Z,-4.09
2017-07-16T07:38:40.193Z,-4.09
2017-07-16T07:39:39.983Z,-4.09
2017-07-16T07:40:34.988Z,-4.09
2017-07-16T07:41:29.068Z,-4.09
2017-07-16T07:42:24.042Z,-4.09
2017-07-16T07:43:18.077Z,-4.09
2017-07-16T07:44:13.212Z,-4.09
2017-07-16T07:45:07.237Z,-4.09
2017-07-16T07:46:01.243Z,-4.09
2017-07-16T07:47:01.377Z,-4.08
2017-07-16T07:47:50.567Z,-4.08
2017-07-16T07:48:44.286Z,-4.08
2017-07-16T07:49:39.415Z,-4.08
2017-07-16T07:50:39.370Z,-4.08
2017-07-16T07:51:34.470Z,-4.08
2017-07-16T07:52:22.434Z,-4.08
2017-07-16T07:53:23.518Z,-4.08
2017-07-16T07:54:17.620Z,-4.08
2017-07-16T07:55:05.712Z,-4.08
2017-07-16T07:55:54.867Z,-4.08
2017-07-16T07:56:49.834Z,-4.08
2017-07-16T07:57:49.854Z,-4.08
2017-07-16T07:58:45.065Z,-4.08
2017-07-16T07:59:39.907Z,-4.08
2017-07-16T08:00:39.956Z,-4.08
2017-07-16T08:01:33.949Z,-4.08
2017-07-16T08:02:28.383Z,-4.08
2017-07-16T08:03:22.082Z,-4.08
2017-07-16T08:04:23.168Z,-4.08
2017-07-16T08:05:23.150Z,-4.08
2017-07-16T08:06:17.251Z,-4.08
2017-07-16T08:07:12.213Z,-4.08
2017-07-16T08:08:07.326Z,-4.08
2017-07-16T08:09:01.265Z,-4.08
2017-07-16T08:09:56.405Z,-4.08
2017-07-16T08:10:56.550Z,-4.08
2017-07-16T08:11:50.453Z,-4.08
2017-07-16T08:12:50.486Z,-4.08
2017-07-16T08:13:39.537Z,-4.08
2017-07-16T08:14:33.661Z,-4.08
2017-07-16T08:15:21.563Z,-4.08
2017-07-16T08:16:16.731Z,-4.08
2017-07-16T08:17:10.825Z,-4.08
2017-07-16T08:18:11.775Z,-4.08
2017-07-16T08:19:05.881Z,-4.08
2017-07-16T08:20:01.127Z,-4.08
2017-07-16T08:20:54.911Z,-4.08
2017-07-16T08:21:49.980Z,-4.08
2017-07-16T08:22:43.985Z,-4.08
2017-07-16T08:23:33.128Z,-4.08
2017-07-16T08:24:28.161Z,-4.08
2017-07-16T08:25:23.232Z,-4.08
2017-07-16T08:26:24.203Z,-4.08
2017-07-16T08:27:25.271Z,-4.08
2017-07-16T08:28:19.303Z,-4.08
2017-07-16T08:29:19.341Z,-4.08
2017-07-16T08:30:08.442Z,-4.08
2017-07-16T08:31:02.635Z,-4.08
2017-07-16T08:31:56.506Z,-4.08
2017-07-16T08:32:56.525Z,-4.08
2017-07-16T08:33:50.601Z,-4.08
2017-07-16T08:34:44.603Z,-4.08
2017-07-16T08:35:33.784Z,-4.08
2017-07-16T08:36:28.760Z,-4.08
2017-07-16T08:37:22.808Z,-4.07
2017-07-16T08:38:16.768Z,-4.07
2017-07-16T08:39:10.980Z,-4.07
2017-07-16T08:40:05.890Z,-4.07
2017-07-16T08:41:00.959Z,-4.08
2017-07-16T08:41:55.007Z,-4.08
2017-07-16T08:42:54.998Z,-4.08
2017-07-16T08:43:50.137Z,-4.08
2017-07-16T08:44:45.078Z,-4.08
2017-07-16T08:45:34.176Z,-4.08
2017-07-16T08:46:34.185Z,-4.08
2017-07-16T08:47:34.697Z,-4.08
2017-07-16T08:48:34.313Z,-4.08
2017-07-16T08:49:34.301Z,-4.08
2017-07-16T08:50:34.406Z,-4.08
2017-07-16T08:51:34.435Z,-4.08
2017-07-16T08:52:34.826Z,-4.08
2017-07-16T08:53:34.435Z,-4.08
2017-07-16T08:54:34.483Z,-4.08
2017-07-16T08:55:34.588Z,-4.08
2017-07-16T08:56:22.679Z,-4.08
2017-07-16T08:57:22.665Z,-4.08
2017-07-16T08:58:11.794Z,-4.08
2017-07-16T08:59:11.870Z,-4.08
2017-07-16T09:00:00.814Z,-4.08
2017-07-16T09:00:54.955Z,-4.08
2017-07-16T09:02:00.879Z,-4.07
2017-07-16T09:02:55.123Z,-4.07
2017-07-16T09:03:55.011Z,-4.07
2017-07-16T09:04:55.040Z,-4.07
2017-07-16T09:05:50.068Z,-4.07
2017-07-16T09:06:50.123Z,-4.07
2017-07-16T09:07:44.162Z,-4.08
2017-07-16T09:08:38.278Z,-4.08
2017-07-16T09:09:32.218Z,-4.07
2017-07-16T09:10:27.660Z,-4.07
2017-07-16T09:11:21.612Z,-4.07
2017-07-16T09:12:21.518Z,-4.07
2017-07-16T09:13:21.447Z,-4.07
2017-07-16T09:14:21.813Z,-4.07
2017-07-16T09:15:21.528Z,-4.07
2017-07-16T09:16:15.732Z,-4.08
2017-07-16T09:17:04.702Z,-4.08
2017-07-16T09:17:52.664Z,-4.07
2017-07-16T09:18:41.686Z,-4.07
2017-07-16T09:19:36.786Z,-4.07
2017-07-16T09:20:37.048Z,-4.08
2017-07-16T09:21:30.961Z,-4.08
2017-07-16T09:22:20.053Z,-4.08
2017-07-16T09:23:20.035Z,-4.08
2017-07-16T09:24:15.304Z,-4.08
2017-07-16T09:25:09.196Z,-4.07
2017-07-16T09:26:03.120Z,-4.08
2017-07-16T09:26:58.361Z,-4.08
2017-07-16T09:27:53.200Z,-4.07
2017-07-16T09:28:53.292Z,-4.07
2017-07-16T09:29:47.297Z,-4.07
2017-07-16T09:30:41.368Z,-4.07
2017-07-16T09:31:35.452Z,-4.07
2017-07-16T09:32:24.527Z,-4.07
2017-07-16T09:33:19.528Z,-4.07
2017-07-16T09:34:19.480Z,-4.07
2017-07-16T09:35:14.630Z,-4.07
2017-07-16T09:36:09.613Z,-4.07
2017-07-16T09:37:09.636Z,-4.07
2017-07-16T09:38:04.025Z,-4.07
2017-07-16T09:38:52.816Z,-4.07
2017-07-16T09:39:40.838Z,-4.07
2017-07-16T09:40:34.899Z,-4.07
2017-07-16T09:41:23.893Z,-4.07
2017-07-16T09:42:18.985Z,-4.07
2017-07-16T09:43:19.264Z,-4.07
2017-07-16T09:44:14.065Z,-4.07
2017-07-16T09:45:08.117Z,-4.07
2017-07-16T09:46:08.253Z,-4.07
2017-07-16T09:47:08.300Z,-4.07
2017-07-16T09:48:02.177Z,-4.07
2017-07-16T09:48:51.337Z,-4.07
2017-07-16T09:49:39.347Z,-4.07
2017-07-16T09:50:39.415Z,-4.07
2017-07-16T09:51:33.434Z,-4.06
2017-07-16T09:52:27.483Z,-4.06
2017-07-16T09:53:22.494Z,-4.06
2017-07-16T09:54:23.719Z,-4.06
2017-07-16T09:55:23.651Z,-4.06
2017-07-16T09:56:11.726Z,-4.06
2017-07-16T09:57:05.700Z,-4.06
2017-07-16T09:57:59.882Z,-4.06
2017-07-16T09:58:54.072Z,-4.06
2017-07-16T09:59:48.886Z,-4.06
2017-07-16T10:00:37.995Z,-4.05
2017-07-16T10:01:38.002Z,-4.05
2017-07-16T10:02:32.473Z,7.36
2017-07-16T10:03:26.470Z,10.12
2017-07-16T10:04:14.205Z,8.91
2017-07-16T10:05:03.280Z,19.52
2017-07-16T10:05:57.276Z,22.06
2017-07-16T10:06:51.432Z,21.09
2017-07-16T10:07:45.625Z,19.13
2017-07-16T10:08:40.530Z,29.48
2017-07-16T10:09:34.576Z,28.72
2017-07-16T10:10:29.642Z,31.41
2017-07-16T10:11:18.649Z,30.52
2017-07-16T10:12:18.736Z,33.42
2017-07-16T10:13:18.821Z,40.64
2017-07-16T10:14:06.898Z,35.25
2017-07-16T10:15:01.137Z,31.36
2017-07-16T10:15:49.067Z,28.61
2017-07-16T10:16:50.112Z,37.97
2017-07-16T10:17:45.334Z,31.98
2017-07-16T10:18:39.231Z,32.23
2017-07-16T10:19:28.409Z,29.55
2017-07-16T10:20:23.649Z,36.77
2017-07-16T10:21:17.748Z,33.30
2017-07-16T10:22:11.723Z,33.87
2017-07-16T10:23:06.564Z,38.84
2017-07-16T10:24:00.926Z,36.37
2017-07-16T10:24:54.668Z,37.81
2017-07-16T10:25:56.046Z,37.27
2017-07-16T10:26:45.176Z,31.87
2017-07-16T10:27:40.548Z,33.32
2017-07-16T10:28:34.014Z,43.22
2017-07-16T10:29:23.357Z,38.63
2017-07-16T10:30:18.506Z,43.55
2017-07-16T10:31:06.407Z,41.89
2017-07-16T10:32:00.295Z,36.79
2017-07-16T10:32:55.429Z,38.13
2017-07-16T10:33:55.504Z,35.19
2017-07-16T10:34:55.956Z,36.28
2017-07-16T10:35:56.660Z,36.46
2017-07-16T10:36:50.886Z,33.36
2017-07-16T10:37:45.687Z,33.42
2017-07-16T10:38:39.873Z,35.61
2017-07-16T10:39:33.953Z,32.80
2017-07-16T10:40:23.004Z,37.55
2017-07-16T10:41:17.057Z,33.66
2017-07-16T10:42:11.256Z,37.73
2017-07-16T10:43:06.104Z,32.98
2017-07-16T10:44:01.263Z,29.79
2017-07-16T10:44:55.540Z,30.10
2017-07-16T10:45:50.541Z,36.78
2017-07-16T10:46:44.505Z,35.08
2017-07-16T10:47:39.893Z,34.40
2017-07-16T10:48:34.953Z,44.42
2017-07-16T10:49:28.996Z,40.44
2017-07-16T10:50:17.976Z,39.04
2017-07-16T10:51:07.154Z,40.96
2017-07-16T10:52:01.197Z,34.54
2017-07-16T10:52:55.311Z,36.54
2017-07-16T10:53:44.221Z,34.58
2017-07-16T10:54:38.417Z,35.21
2017-07-16T10:55:33.505Z,32.86
2017-07-16T10:56:27.674Z,34.21
2017-07-16T10:57:16.690Z,32.39
2017-07-16T10:58:11.641Z,28.09
2017-07-16T10:59:11.720Z,26.37
2017-07-16T11:00:06.767Z,27.24
2017-07-16T11:01:00.840Z,27.31
2017-07-16T11:01:49.637Z,25.37
2017-07-16T11:02:44.047Z,32.24
2017-07-16T11:03:38.688Z,26.66
2017-07-16T11:04:27.935Z,22.53
2017-07-16T11:05:23.185Z,17.70
2017-07-16T11:06:12.155Z,17.48
2017-07-16T11:07:06.233Z,13.35
2017-07-16T11:08:06.309Z,17.46
2017-07-16T11:08:55.326Z,11.97
2017-07-16T11:09:49.374Z,10.59
2017-07-16T11:10:43.468Z,3.25
2017-07-16T11:11:38.549Z,1.76
2017-07-16T11:12:27.494Z,5.76
2017-07-16T11:13:27.697Z,10.25
2017-07-16T11:14:22.747Z,19.81
2017-07-16T11:15:10.912Z,15.73
2017-07-16T11:16:05.928Z,14.54
2017-07-16T11:16:54.018Z,27.87
2017-07-16T11:17:48.097Z,25.58
2017-07-16T11:18:37.151Z,28.43
2017-07-16T11:19:31.043Z,30.55
2017-07-16T11:20:25.076Z,30.26
2017-07-16T11:21:13.013Z,25.12
2017-07-16T11:22:13.184Z,30.89
2017-07-16T11:23:07.422Z,34.38
2017-07-16T11:24:01.435Z,30.86
2017-07-16T11:24:56.565Z,23.23
2017-07-16T11:25:45.760Z,18.33
2017-07-16T11:26:39.683Z,15.57
2017-07-16T11:27:33.862Z,17.21
2017-07-16T11:28:27.858Z,20.32
2017-07-16T11:29:22.857Z,20.32
2017-07-16T11:30:11.749Z,16.90
2017-07-16T11:31:06.026Z,11.82